Time;durP1;ratioP1;P1;durP2;ratioP2;P2;SDS_P1;SDS_P2;PMS_P1;PMS_P2;Temp;Humidity;BMP_temperature;BMP_pressure;BME280_temperature;BME280_humidity;BME280_pressure;Samples;Min_cycle;Max_cycle;Signal;HPM_P1;HPM_P2
2021/11/26 00:01:23;;;;;;;;;;;;;;;;;;5100820;28;20296;-65
2021/11/26 00:03:50;;;;;;;;;;;;;;;;;;5098753;28;19932;-65
2021/11/26 00:06:17;;;;;;;;;;;;;;;;;;5100452;28;19923;-65
2021/11/26 00:08:44;;;;;;;;;;;;;;;;;;5098468;28;19928;-65
2021/11/26 00:11:11;;;;;;;;;;;;;;;;;;5098636;28;20295;-65
2021/11/26 00:13:41;;;;;;;;;;;;;;;;;;5098432;28;19931;-65
2021/11/26 00:16:14;;;;;;;;;;;;;;;;;;5097606;28;19923;-65
2021/11/26 00:18:43;;;;;;;;;;;;;;;;;;5098778;28;20346;-65
2021/11/26 00:21:10;;;;;;;;;;;;;;;;;;5099919;28;20005;-65
2021/11/26 00:23:37;;;;;;;;;;;;;;;;;;5095726;28;19928;-65
2021/11/26 00:26:04;;;;;;;;;;;;;;;;;;5102829;28;20391;-66
2021/11/26 00:28:31;;;;;;;;;;;;;;;;;;5104431;28;20295;-65
2021/11/26 00:30:58;;;;;;;;;;;;;;;;;;5100704;28;19924;-65
2021/11/26 00:33:25;;;;;;;;;;;;;;;;;;5104176;28;20039;-65
2021/11/26 00:35:52;;;;;;;;;;;;;;;;;;5101561;28;19932;-65
2021/11/26 00:38:19;;;;;;;;;;;;;;;;;;5098923;28;19932;-65
2021/11/26 00:40:46;;;;;;;;;;;;;;;;;;5100269;28;20648;-65
2021/11/26 00:43:13;;;;;;;;;;;;;;;;;;5096797;28;19935;-66
2021/11/26 00:45:40;;;;;;;;;;;;;;;;;;5099709;28;19928;-65
2021/11/26 00:48:07;;;;;;;;;;;;;;;;;;5097804;28;19924;-65
2021/11/26 00:50:35;;;;;;;;;;;;;;;;;;5103010;28;19928;-66
2021/11/26 00:53:02;;;;;;;;;;;;;;;;;;5097447;28;19977;-66
2021/11/26 00:55:29;;;;;;;;;;;;;;;;;;5099972;28;19932;-66
2021/11/26 00:57:56;;;;;;;;;;;;;;;;;;5101453;28;19924;-65
2021/11/26 01:00:23;;;;;;;;;;;;;;;;;;5102699;28;19924;-65
2021/11/26 01:02:50;;;;;;;;;;;;;;;;;;5101051;28;19930;-64
2021/11/26 01:05:17;;;;;;;;;;;;;;;;;;5103828;28;19928;-64
2021/11/26 01:07:44;;;;;;;;;;;;;;;;;;5099522;28;21208;-65
2021/11/26 01:10:11;;;;;;;;;;;;;;;;;;5103815;28;19939;-66
2021/11/26 01:12:37;;;;;;;;;;;;;;;;;;5102492;28;19930;-66
2021/11/26 01:15:04;;;;;;;;;;;;;;;;;;5102557;28;19924;-68
2021/11/26 01:17:31;;;;;;;;;;;;;;;;;;5101026;28;20387;-66
2021/11/26 01:19:58;;;;;;;;;;;;;;;;;;5102260;28;20287;-65
2021/11/26 01:22:25;;;;;;;;;;;;;;;;;;5104740;28;19932;-65
2021/11/26 01:24:52;;;;;;;;;;;;;;;;;;5102624;28;19932;-65
2021/11/26 01:27:19;;;;;;;;;;;;;;;;;;5105149;28;20402;-65
2021/11/26 01:29:46;;;;;;;;;;;;;;;;;;5104127;28;20323;-65
2021/11/26 01:32:14;;;;;;;;;;;;;;;;;;5101438;28;19924;-66
2021/11/26 01:34:41;;;;;;;;;;;;;;;;;;5105949;28;19943;-66
2021/11/26 01:37:07;;;;;;;;;;;;;;;;;;5101299;28;20391;-66
2021/11/26 01:39:34;;;;;;;;;;;;;;;;;;5100988;28;20508;-66
2021/11/26 01:42:01;;;;;;;;;;;;;;;;;;5109316;27;19930;-66
2021/11/26 01:44:28;;;;;;;;;;;;;;;;;;5106550;28;19931;-66
2021/11/26 01:46:55;;;;;;;;;;;;;;;;;;5101853;28;19924;-65
2021/11/26 01:49:22;;;;;;;;;;;;;;;;;;5102021;28;20368;-66
2021/11/26 01:51:49;;;;;;;;;;;;;;;;;;5104788;28;19932;-66
2021/11/26 01:54:16;;;;;;;;;;;;;;;;;;5103743;28;19924;-66
2021/11/26 01:56:43;;;;;;;;;;;;;;;;;;5100477;28;20346;-64
2021/11/26 01:59:10;;;;;;;;;;;;;;;;;;5102696;28;20366;-65
2021/11/26 02:01:37;;;;;;;;;;;;;;;;;;5103691;28;19924;-66
2021/11/26 02:04:04;;;;;;;;;;;;;;;;;;5104236;28;20067;-64
2021/11/26 02:06:31;;;;;;;;;;;;;;;;;;5104856;28;19924;-65
2021/11/26 02:08:58;;;;;;;;;;;;;;;;;;5104114;28;19960;-65
2021/11/26 02:11:25;;;;;;;;;;;;;;;;;;5102104;28;19924;-65
2021/11/26 02:13:52;;;;;;;;;;;;;;;;;;5102500;28;19924;-65
2021/11/26 02:16:19;;;;;;;;;;;;;;;;;;5102208;28;19924;-65
2021/11/26 02:18:46;;;;;;;;;;;;;;;;;;5102762;28;19951;-65
2021/11/26 02:21:13;;;;;;;;;;;;;;;;;;5104482;28;20387;-66
2021/11/26 02:23:40;;;;;;;;;;;;;;;;;;5104209;28;19928;-63
2021/11/26 02:26:07;;;;;;;;;;;;;;;;;;5097578;28;19927;-65
2021/11/26 02:28:34;;;;;;;;;;;;;;;;;;5104822;28;19949;-66
2021/11/26 02:31:01;;;;;;;;;;;;;;;;;;5104993;28;19931;-66
2021/11/26 02:33:28;;;;;;;;;;;;;;;;;;5103306;28;19924;-66
2021/11/26 02:35:55;;;;;;;;;;;;;;;;;;5103336;28;20406;-66
2021/11/26 02:38:22;;;;;;;;;;;;;;;;;;5101684;28;20386;-66
2021/11/26 02:40:49;;;;;;;;;;;;;;;;;;5099687;28;19950;-65
2021/11/26 02:43:16;;;;;;;;;;;;;;;;;;5103104;28;19932;-65
2021/11/26 02:45:44;;;;;;;;;;;;;;;;;;5104567;28;19924;-65
2021/11/26 02:48:12;;;;;;;;;;;;;;;;;;5099195;27;19927;-64
2021/11/26 02:50:39;;;;;;;;;;;;;;;;;;5100275;27;19928;-64
2021/11/26 02:53:06;;;;;;;;;;;;;;;;;;5106130;28;19957;-65
2021/11/26 02:55:33;;;;;;;;;;;;;;;;;;5109134;28;19930;-64
2021/11/26 02:58:00;;;;;;;;;;;;;;;;;;5108298;28;19928;-64
2021/11/26 03:00:27;;;;;;;;;;;;;;;;;;5103605;28;19935;-65
2021/11/26 03:02:54;;;;;;;;;;;;;;;;;;5102481;28;20155;-64
2021/11/26 03:05:21;;;;;;;;;;;;;;;;;;5103952;28;19928;-65
2021/11/26 03:07:48;;;;;;;;;;;;;;;;;;5103088;28;20912;-65
2021/11/26 03:10:16;;;;;;;;;;;;;;;;;;5102128;28;20410;-64
2021/11/26 03:12:43;;;;;;;;;;;;;;;;;;5104833;28;19935;-64
2021/11/26 03:15:10;;;;;;;;;;;;;;;;;;5102448;28;19924;-64
2021/11/26 03:17:37;;;;;;;;;;;;;;;;;;5103361;28;19932;-64
2021/11/26 03:20:04;;;;;;;;;;;;;;;;;;5104361;28;20276;-65
2021/11/26 03:22:31;;;;;;;;;;;;;;;;;;5103225;28;19951;-65
2021/11/26 03:24:58;;;;;;;;;;;;;;;;;;5098536;28;19932;-64
2021/11/26 03:27:25;;;;;;;;;;;;;;;;;;5103073;28;19931;-65
2021/11/26 03:29:52;;;;;;;;;;;;;;;;;;5101889;28;19934;-65
2021/11/26 03:32:19;;;;;;;;;;;;;;;;;;5103728;28;19931;-64
2021/11/26 03:34:46;;;;;;;;;;;;;;;;;;5102596;28;19923;-65
2021/11/26 03:37:13;;;;;;;;;;;;;;;;;;5101976;28;20906;-65
2021/11/26 03:39:40;;;;;;;;;;;;;;;;;;5101241;28;19934;-65
2021/11/26 03:42:07;;;;;;;;;;;;;;;;;;5103898;28;19923;-65
2021/11/26 03:44:34;;;;;;;;;;;;;;;;;;5102186;28;19928;-66
2021/11/26 03:47:01;;;;;;;;;;;;;;;;;;5103494;28;20399;-66
2021/11/26 03:49:28;;;;;;;;;;;;;;;;;;5103196;28;19931;-66
2021/11/26 03:51:55;;;;;;;;;;;;;;;;;;5101354;28;19939;-65
2021/11/26 03:54:22;;;;;;;;;;;;;;;;;;5103156;28;19931;-65
2021/11/26 03:56:49;;;;;;;;;;;;;;;;;;5103005;28;19924;-65
2021/11/26 03:59:16;;;;;;;;;;;;;;;;;;5104441;28;20307;-65
2021/11/26 04:01:43;;;;;;;;;;;;;;;;;;5104665;28;19923;-66
2021/11/26 04:04:10;;;;;;;;;;;;;;;;;;5101350;28;19938;-65
2021/11/26 04:06:37;;;;;;;;;;;;;;;;;;5096987;28;19939;-65
2021/11/26 04:09:04;;;;;;;;;;;;;;;;;;5102074;28;19924;-65
2021/11/26 04:11:31;;;;;;;;;;;;;;;;;;5103123;28;20600;-65
2021/11/26 04:13:58;;;;;;;;;;;;;;;;;;5100702;28;19931;-65
2021/11/26 04:16:25;;;;;;;;;;;;;;;;;;5098196;28;19932;-65
2021/11/26 04:18:54;;;;;;;;;;;;;;;;;;5098975;28;19928;-66
2021/11/26 04:21:21;;;;;;;;;;;;;;;;;;5099288;28;19951;-66
2021/11/26 04:23:48;;;;;;;;;;;;;;;;;;5101464;28;19930;-65
2021/11/26 04:26:15;;;;;;;;;;;;;;;;;;5103410;28;19940;-65
2021/11/26 04:28:42;;;;;;;;;;;;;;;;;;5103480;28;19938;-65
2021/11/26 04:31:09;;;;;;;;;;;;;;;;;;5100949;28;19931;-65
2021/11/26 04:33:35;;;;;;;;;;;;;;;;;;5098496;28;19930;-66
2021/11/26 04:36:02;;;;;;;;;;;;;;;;;;5100476;28;20294;-65
2021/11/26 04:38:29;;;;;;;;;;;;;;;;;;5077506;22;19931;-67
2021/11/26 04:40:56;;;;;;;;;;;;;;;;;;5040861;28;19932;-67
2021/11/26 04:43:24;;;;;;;;;;;;;;;;;;5046585;28;19932;-68
2021/11/26 04:45:51;;;;;;;;;;;;;;;;;;5043852;28;19932;-68
2021/11/26 04:48:18;;;;;;;;;;;;;;;;;;5039586;28;19979;-66
2021/11/26 04:50:50;;;;;;;;;;;;;;;;;;5041161;28;19925;-69
2021/11/26 04:53:17;;;;;;;;;;;;;;;;;;5042947;28;19935;-68
2021/11/26 04:55:44;;;;;;;;;;;;;;;;;;5043805;28;19931;-68
2021/11/26 04:58:11;;;;;;;;;;;;;;;;;;5040807;28;19928;-68
2021/11/26 05:00:38;;;;;;;;;;;;;;;;;;5039681;28;19932;-68
2021/11/26 05:03:05;;;;;;;;;;;;;;;;;;5038632;28;20518;-67
2021/11/26 05:05:32;;;;;;;;;;;;;;;;;;5038477;28;20033;-68
2021/11/26 05:07:59;;;;;;;;;;;;;;;;;;5037503;28;20308;-68
2021/11/26 05:10:26;;;;;;;;;;;;;;;;;;5039776;28;19925;-67
2021/11/26 05:12:55;;;;;;;;;;;;;;;;;;5039321;28;19947;-67
2021/11/26 05:15:25;;;;;;;;;;;;;;;;;;5042080;28;19933;-67
2021/11/26 05:17:52;;;;;;;;;;;;;;;;;;5038439;28;19925;-67
2021/11/26 05:20:19;;;;;;;;;;;;;;;;;;5038821;28;19933;-66
2021/11/26 05:22:46;;;;;;;;;;;;;;;;;;5037253;28;19925;-67
2021/11/26 05:25:13;;;;;;;;;;;;;;;;;;5040646;28;19925;-69
2021/11/26 05:27:40;;;;;;;;;;;;;;;;;;5041991;28;20288;-67
2021/11/26 05:30:07;;;;;;;;;;;;;;;;;;5041480;28;19932;-67
2021/11/26 05:32:34;;;;;;;;;;;;;;;;;;5037547;28;19932;-68
2021/11/26 05:35:01;;;;;;;;;;;;;;;;;;5038207;28;19925;-68
2021/11/26 05:37:28;;;;;;;;;;;;;;;;;;5039717;28;19933;-67
2021/11/26 05:39:55;;;;;;;;;;;;;;;;;;5039367;28;20171;-67
2021/11/26 05:42:22;;;;;;;;;;;;;;;;;;5041461;28;19925;-68
2021/11/26 05:44:49;;;;;;;;;;;;;;;;;;5043927;28;19933;-66
2021/11/26 05:47:15;;;;;;;;;;;;;;;;;;5042670;28;19933;-68
2021/11/26 05:49:42;;;;;;;;;;;;;;;;;;5044590;28;19936;-68
2021/11/26 05:52:09;;;;;;;;;;;;;;;;;;5043990;28;20371;-68
2021/11/26 05:54:37;;;;;;;;;;;;;;;;;;5043450;28;20261;-71
2021/11/26 05:57:04;;;;;;;;;;;;;;;;;;5044707;28;19933;-68
2021/11/26 05:59:31;;;;;;;;;;;;;;;;;;5043652;28;20032;-68
2021/11/26 06:01:59;;;;;;;;;;;;;;;;;;5044299;28;20324;-66
2021/11/26 06:04:26;;;;;;;;;;;;;;;;;;5043684;28;20450;-67
2021/11/26 06:06:52;;;;;;;;;;;;;;;;;;5040579;28;19935;-66
2021/11/26 06:09:19;;;;;;;;;;;;;;;;;;5042201;28;19932;-69
2021/11/26 06:11:48;;;;;;;;;;;;;;;;;;5042315;28;19935;-65
2021/11/26 06:14:15;;;;;;;;;;;;;;;;;;5042912;28;20151;-68
2021/11/26 06:16:42;;;;;;;;;;;;;;;;;;5043764;28;19932;-68
2021/11/26 06:19:09;;;;;;;;;;;;;;;;;;5043350;28;19928;-67
2021/11/26 06:21:36;;;;;;;;;;;;;;;;;;5041557;28;19924;-68
2021/11/26 06:24:03;;;;;;;;;;;;;;;;;;5042747;28;20515;-67
2021/11/26 06:26:30;;;;;;;;;;;;;;;;;;5041428;28;19995;-70
2021/11/26 06:28:57;;;;;;;;;;;;;;;;;;5043608;28;19928;-67
2021/11/26 06:31:24;;;;;;;;;;;;;;;;;;5040333;28;20015;-68
2021/11/26 06:33:51;;;;;;;;;;;;;;;;;;5039993;28;19925;-67
2021/11/26 06:36:18;;;;;;;;;;;;;;;;;;5046808;28;19929;-67
2021/11/26 06:38:45;;;;;;;;;;;;;;;;;;5042527;28;20005;-67
2021/11/26 06:41:12;;;;;;;;;;;;;;;;;;5042004;28;19925;-67
2021/11/26 06:43:39;;;;;;;;;;;;;;;;;;5046351;28;19925;-69
2021/11/26 06:46:06;;;;;;;;;;;;;;;;;;5045501;28;20032;-68
2021/11/26 06:48:33;;;;;;;;;;;;;;;;;;5052592;28;20248;-69
2021/11/26 06:51:00;;;;;;;;;;;;;;;;;;5049525;28;19925;-70
2021/11/26 06:53:27;;;;;;;;;;;;;;;;;;5046873;28;20007;-68
2021/11/26 06:55:55;;;;;;;;;;;;;;;;;;5046047;28;20020;-67
2021/11/26 06:58:22;;;;;;;;;;;;;;;;;;5040999;28;19929;-67
2021/11/26 07:00:49;;;;;;;;;;;;;;;;;;5048074;28;19935;-67
2021/11/26 07:03:16;;;;;;;;;;;;;;;;;;5045996;28;19924;-68
2021/11/26 07:05:42;;;;;;;;;;;;;;;;;;5045073;28;19928;-68
2021/11/26 07:08:10;;;;;;;;;;;;;;;;;;5048269;28;19929;-67
2021/11/26 07:10:37;;;;;;;;;;;;;;;;;;5044772;28;19925;-67
2021/11/26 07:13:04;;;;;;;;;;;;;;;;;;5044258;28;20392;-68
2021/11/26 07:15:30;;;;;;;;;;;;;;;;;;5044196;28;19954;-67
2021/11/26 07:17:57;;;;;;;;;;;;;;;;;;5047772;28;19924;-68
2021/11/26 07:45:08;;;;;;;;;;;;;;;;;;5104994;22;19939;-66
2021/11/26 07:47:35;;;;;;;;;;;;;;;;;;5083902;28;19930;-67
2021/11/26 07:50:02;;;;;;;;;;;;;;;;;;5085438;28;20375;-66
2021/11/26 07:52:29;;;;;;;;;;;;;;;;;;5085009;28;19924;-65
2021/11/26 07:54:56;;;;;;;;;;;;;;;;;;5085905;28;20384;-65
2021/11/26 07:57:23;;;;;;;;;;;;;;;;;;5086261;28;20293;-65
2021/11/26 07:59:50;;;;;;;;;;;;;;;;;;5079630;28;19924;-64
2021/11/26 08:02:17;;;;;;;;;;;;;;;;;;5085025;28;19935;-65
2021/11/26 08:04:44;;;;;;;;;;;;;;;;;;5078720;28;20331;-65
2021/11/26 08:07:11;;;;;;;;;;;;;;;;;;5076863;28;19924;-64
2021/11/26 08:09:38;;;;;;;;;;;;;;;;;;5080629;28;19935;-64
2021/11/26 08:12:05;;;;;;;;;;;;;;;;;;5082963;28;19924;-64
2021/11/26 08:14:32;;;;;;;;;;;;;;;;;;5080531;28;20171;-66
2021/11/26 08:16:59;;;;;;;;;;;;;;;;;;5081815;28;19928;-65
2021/11/26 08:19:26;;;;;;;;;;;;;;;;;;5082796;28;19936;-65
2021/11/26 08:21:53;;;;;;;;;;;;;;;;;;5086626;28;20252;-65
2021/11/26 08:24:20;;;;;;;;;;;;;;;;;;5081713;28;20277;-65
2021/11/26 08:26:47;;;;;;;;;;;;;;;;;;5079554;28;19928;-64
2021/11/26 08:29:14;;;;;;;;;;;;;;;;;;5082013;28;19932;-65
2021/11/26 08:31:41;;;;;;;;;;;;;;;;;;5085817;28;19925;-64
2021/11/26 08:34:07;;;;;;;;;;;;;;;;;;5085040;28;19934;-66
2021/11/26 08:36:34;;;;;;;;;;;;;;;;;;5083033;28;19924;-66
2021/11/26 08:39:01;;;;;;;;;;;;;;;;;;5075740;28;19932;-66
2021/11/26 08:41:29;;;;;;;;;;;;;;;;;;5081161;28;20011;-66
2021/11/26 08:43:55;;;;;;;;;;;;;;;;;;5080484;28;20019;-66
2021/11/26 08:46:22;;;;;;;;;;;;;;;;;;5079183;28;19931;-65
2021/11/26 08:48:49;;;;;;;;;;;;;;;;;;5083805;28;19924;-64
2021/11/26 08:51:16;;;;;;;;;;;;;;;;;;5084864;28;19928;-68
2021/11/26 08:53:46;;;;;;;;;;;;;;;;;;5080005;28;20402;-65
2021/11/26 08:56:13;;;;;;;;;;;;;;;;;;5078289;28;19935;-65
2021/11/26 08:58:40;;;;;;;;;;;;;;;;;;5084299;28;20275;-69
2021/11/26 09:01:08;;;;;;;;;;;;;;;;;;5083787;28;20306;-67
2021/11/26 09:03:35;;;;;;;;;;;;;;;;;;5085811;28;20384;-65
2021/11/26 09:06:02;;;;;;;;;;;;;;;;;;5079998;28;19924;-67
2021/11/26 09:08:29;;;;;;;;;;;;;;;;;;5080363;28;20371;-66
2021/11/26 09:10:56;;;;;;;;;;;;;;;;;;5077890;28;19928;-66
2021/11/26 09:13:23;;;;;;;;;;;;;;;;;;5079435;28;20348;-66
2021/11/26 09:15:50;;;;;;;;;;;;;;;;;;5083225;28;19989;-67
2021/11/26 09:18:17;;;;;;;;;;;;;;;;;;5084066;28;19953;-65
2021/11/26 09:20:49;;;;;;;;;;;;;;;;;;5089884;28;19924;-66
2021/11/26 09:23:16;;;;;;;;;;;;;;;;;;5085387;28;19935;-66
2021/11/26 09:25:43;;;;;;;;;;;;;;;;;;5087394;28;20015;-67
2021/11/26 09:28:10;;;;;;;;;;;;;;;;;;5086110;28;19924;-66
2021/11/26 09:30:37;;;;;;;;;;;;;;;;;;5083100;28;19925;-67
2021/11/26 09:33:04;;;;;;;;;;;;;;;;;;5082668;28;19935;-66
2021/11/26 09:35:31;;;;;;;;;;;;;;;;;;5081413;28;20353;-67
2021/11/26 09:37:59;;;;;;;;;;;;;;;;;;5082506;28;20184;-66
2021/11/26 09:40:26;;;;;;;;;;;;;;;;;;5088939;28;19928;-67
2021/11/26 09:42:53;;;;;;;;;;;;;;;;;;5086266;28;20443;-67
2021/11/26 09:45:21;;;;;;;;;;;;;;;;;;5087919;28;19924;-66
2021/11/26 09:47:48;;;;;;;;;;;;;;;;;;5086954;28;19930;-66
2021/11/26 09:50:15;;;;;;;;;;;;;;;;;;5083446;28;20094;-66
2021/11/26 09:52:42;;;;;;;;;;;;;;;;;;5085525;28;19947;-66
2021/11/26 09:55:09;;;;;;;;;;;;;;;;;;5086826;28;19924;-66
2021/11/26 09:57:36;;;;;;;;;;;;;;;;;;5082139;28;19929;-68
2021/11/26 10:00:03;;;;;;;;;;;;;;;;;;5088314;28;20401;-67
2021/11/26 10:02:30;;;;;;;;;;;;;;;;;;5087860;28;19969;-67
2021/11/26 10:04:57;;;;;;;;;;;;;;;;;;5086138;28;19931;-67
2021/11/26 10:07:24;;;;;;;;;;;;;;;;;;5090026;28;19928;-67
2021/11/26 10:09:51;;;;;;;;;;;;;;;;;;5086983;28;19924;-67
2021/11/26 10:12:18;;;;;;;;;;;;;;;;;;5086977;28;20376;-67
2021/11/26 10:14:46;;;;;;;;;;;;;;;;;;5088971;28;19924;-66
2021/11/26 10:17:14;;;;;;;;;;;;;;;;;;5092132;28;19924;-66
2021/11/26 10:19:41;;;;;;;;;;;;;;;;;;5086561;28;19931;-68
2021/11/26 10:22:08;;;;;;;;;;;;;;;;;;5081258;28;19924;-68
2021/11/26 10:24:35;;;;;;;;;;;;;;;;;;5086600;28;19928;-67
2021/11/26 10:27:02;;;;;;;;;;;;;;;;;;5084046;28;19924;-68
2021/11/26 10:29:29;;;;;;;;;;;;;;;;;;5083855;28;19932;-68
2021/11/26 10:31:56;;;;;;;;;;;;;;;;;;5084215;28;20315;-67
2021/11/26 10:34:22;;;;;;;;;;;;;;;;;;5084957;28;20311;-65
2021/11/26 10:36:51;;;;;;;;;;;;;;;;;;5086604;28;20152;-66
2021/11/26 10:39:18;;;;;;;;;;;;;;;;;;5086772;28;19964;-65
2021/11/26 10:41:48;;;;;;;;;;;;;;;;;;5089138;28;20291;-67
2021/11/26 10:44:18;;;;;;;;;;;;;;;;;;5081948;28;19949;-67
2021/11/26 10:46:49;;;;;;;;;;;;;;;;;;5080425;28;19970;-67
2021/11/26 10:49:38;;;;;;;;;;;;;;;;;;5081917;28;19939;-68
2021/11/26 10:52:24;;;;;;;;;;;;;;;;;;5084799;28;19924;-66
2021/11/26 10:57:58;;;;;;;;;;;;;;;;;;5083091;28;20391;-67
2021/11/26 11:00:25;;;;;;;;;;;;;;;;;;5085378;28;19931;-66
2021/11/26 11:02:52;;;;;;;;;;;;;;;;;;5081520;28;19928;-66
2021/11/26 11:05:19;;;;;;;;;;;;;;;;;;5081048;28;20003;-68
2021/11/26 11:07:46;;;;;;;;;;;;;;;;;;5087621;28;19924;-68
2021/11/26 11:10:13;;;;;;;;;;;;;;;;;;5085319;28;19962;-68
2021/11/26 11:12:40;;;;;;;;;;;;;;;;;;5079841;28;20396;-69
2021/11/26 11:15:07;;;;;;;;;;;;;;;;;;5080918;28;19928;-66
2021/11/26 11:17:34;;;;;;;;;;;;;;;;;;5085317;28;19930;-67
2021/11/26 11:20:01;;;;;;;;;;;;;;;;;;5084322;28;19924;-66
2021/11/26 11:22:28;;;;;;;;;;;;;;;;;;5080867;28;19947;-66
2021/11/26 11:24:55;;;;;;;;;;;;;;;;;;5084166;28;19927;-66
2021/11/26 11:27:22;;;;;;;;;;;;;;;;;;5086215;28;20425;-67
2021/11/26 11:29:49;;;;;;;;;;;;;;;;;;5084395;28;19924;-67
2021/11/26 11:32:16;;;;;;;;;;;;;;;;;;5084996;28;19929;-67
2021/11/26 11:34:43;;;;;;;;;;;;;;;;;;5081628;28;19931;-66
2021/11/26 11:37:13;;;;;;;;;;;;;;;;;;5078480;28;19925;-67
2021/11/26 11:39:39;;;;;;;;;;;;;;;;;;5079972;28;19973;-67
2021/11/26 11:42:06;;;;;;;;;;;;;;;;;;5083082;28;19928;-69
2021/11/26 11:44:33;;;;;;;;;;;;;;;;;;5083950;28;20398;-69
2021/11/26 11:47:00;;;;;;;;;;;;;;;;;;5083398;28;19939;-66
2021/11/26 11:49:27;;;;;;;;;;;;;;;;;;5080499;28;19935;-67
2021/11/26 11:51:56;;;;;;;;;;;;;;;;;;5080649;28;20043;-67
2021/11/26 11:54:23;;;;;;;;;;;;;;;;;;5076469;28;19929;-67
2021/11/26 11:56:50;;;;;;;;;;;;;;;;;;5078715;28;19928;-67
2021/11/26 11:59:17;;;;;;;;;;;;;;;;;;5086280;28;19935;-67
2021/11/26 12:01:45;;;;;;;;;;;;;;;;;;5073474;28;19931;-67
2021/11/26 12:04:13;;;;;;;;;;;;;;;;;;5079021;28;19931;-66
2021/11/26 12:06:40;;;;;;;;;;;;;;;;;;5078623;28;19928;-66
2021/11/26 12:09:07;;;;;;;;;;;;;;;;;;5076909;28;19950;-67
2021/11/26 12:11:34;;;;;;;;;;;;;;;;;;5081370;28;19931;-67
2021/11/26 12:14:01;;;;;;;;;;;;;;;;;;5078537;28;19934;-66
2021/11/26 12:16:28;;;;;;;;;;;;;;;;;;5081780;28;19928;-69
2021/11/26 12:18:55;;;;;;;;;;;;;;;;;;5085038;28;20597;-67
2021/11/26 12:21:22;;;;;;;;;;;;;;;;;;5084256;28;20397;-65
2021/11/26 12:23:58;;;;;;;;;;;;;;;;;;5080625;28;20407;-67
2021/11/26 12:26:27;;;;;;;;;;;;;;;;;;5075302;28;19979;-68
2021/11/26 12:28:56;;;;;;;;;;;;;;;;;;5079934;28;19981;-67
2021/11/26 12:31:23;;;;;;;;;;;;;;;;;;5079501;28;20054;-66
2021/11/26 12:33:50;;;;;;;;;;;;;;;;;;5080889;28;19931;-67
2021/11/26 12:36:17;;;;;;;;;;;;;;;;;;5079647;28;20211;-67
2021/11/26 12:38:44;;;;;;;;;;;;;;;;;;5082541;28;19924;-68
2021/11/26 12:41:11;;;;;;;;;;;;;;;;;;5076244;28;19924;-68
2021/11/26 12:43:38;;;;;;;;;;;;;;;;;;5081537;28;20441;-68
2021/11/26 12:46:05;;;;;;;;;;;;;;;;;;5078367;28;20003;-67
2021/11/26 12:48:35;;;;;;;;;;;;;;;;;;5081721;28;19930;-66
2021/11/26 12:51:05;;;;;;;;;;;;;;;;;;5086276;28;19924;-67
2021/11/26 12:53:32;;;;;;;;;;;;;;;;;;5088445;28;19989;-68
2021/11/26 12:55:59;;;;;;;;;;;;;;;;;;5084237;28;19924;-66
2021/11/26 12:58:26;;;;;;;;;;;;;;;;;;5087186;28;20273;-67
2021/11/26 13:00:53;;;;;;;;;;;;;;;;;;5087111;28;19924;-67
2021/11/26 13:03:20;;;;;;;;;;;;;;;;;;5087875;28;19999;-67
2021/11/26 13:05:47;;;;;;;;;;;;;;;;;;5092392;28;19924;-67
2021/11/26 13:08:14;;;;;;;;;;;;;;;;;;5085127;28;20372;-66
2021/11/26 13:10:41;;;;;;;;;;;;;;;;;;5086726;28;20322;-67
2021/11/26 13:13:08;;;;;;;;;;;;;;;;;;5085191;28;20289;-68
2021/11/26 13:15:35;;;;;;;;;;;;;;;;;;5082555;28;19924;-67
2021/11/26 13:18:02;;;;;;;;;;;;;;;;;;5087915;28;19969;-67
2021/11/26 13:20:29;;;;;;;;;;;;;;;;;;5090115;28;19924;-67
2021/11/26 13:22:57;;;;;;;;;;;;;;;;;;5083167;28;19951;-66
2021/11/26 13:25:23;;;;;;;;;;;;;;;;;;5087258;28;20078;-66
2021/11/26 13:27:50;;;;;;;;;;;;;;;;;;5090553;28;19961;-68
2021/11/26 13:30:17;;;;;;;;;;;;;;;;;;5087493;28;19928;-67
2021/11/26 13:32:45;;;;;;;;;;;;;;;;;;5084693;28;20376;-67
2021/11/26 13:35:13;;;;;;;;;;;;;;;;;;5090213;28;21566;-65
2021/11/26 13:37:40;;;;;;;;;;;;;;;;;;5087796;28;19924;-69
2021/11/26 13:40:09;;;;;;;;;;;;;;;;;;5084097;28;19924;-66
2021/11/26 13:42:40;;;;;;;;;;;;;;;;;;5089668;28;19932;-68
2021/11/26 13:45:07;;;;;;;;;;;;;;;;;;5111339;22;19909;-68
2021/11/26 13:47:34;;;;;;;;;;;;;;;;;;5086495;28;19964;-65
2021/11/26 13:50:03;;;;;;;;;;;;;;;;;;5098798;28;19935;-68
2021/11/26 13:52:30;;;;;;;;;;;;;;;;;;5103776;27;19951;-67
2021/11/26 13:54:57;;;;;;;;;;;;;;;;;;5101593;28;19928;-68
2021/11/26 13:57:24;;;;;;;;;;;;;;;;;;5104885;28;20439;-67
2021/11/26 13:59:52;;;;;;;;;;;;;;;;;;5099363;28;19928;-68
2021/11/26 14:02:20;;;;;;;;;;;;;;;;;;5103917;28;19924;-69
2021/11/26 14:07:50;;;;;;;;;;;;;;;;;;5108834;27;19992;-66
2021/11/26 14:10:21;;;;;;;;;;;;;;;;;;5106078;27;19928;-62
2021/11/26 14:18:10;;;;;;;;;;;;;;;;;;5095409;27;19963;-66
2021/11/26 14:20:46;;;;;;;;;;;;;;;;;;5102311;28;20386;-67
2021/11/26 14:23:14;;;;;;;;;;;;;;;;;;5105966;28;19955;-63
2021/11/26 14:25:57;;;;;;;;;;;;;;;;;;5112337;27;19935;-63
2021/11/26 14:28:39;;;;;;;;;;;;;;;;;;5092037;28;20034;-61
2021/11/26 14:31:12;;;;;;;;;;;;;;;;;;5104456;28;19916;-63
2021/11/26 14:33:39;;;;;;;;;;;;;;;;;;5102154;28;19939;-66
2021/11/26 14:36:06;;;;;;;;;;;;;;;;;;5104250;28;19932;-66
2021/11/26 14:38:33;;;;;;;;;;;;;;;;;;5102054;28;19970;-69
2021/11/26 14:41:00;;;;;;;;;;;;;;;;;;5103402;28;19938;-67
2021/11/26 14:43:28;;;;;;;;;;;;;;;;;;5104280;28;19935;-63
2021/11/26 14:45:55;;;;;;;;;;;;;;;;;;5097449;28;19912;-66
2021/11/26 14:48:33;;;;;;;;;;;;;;;;;;5104845;28;20019;-63
2021/11/26 14:51:00;;;;;;;;;;;;;;;;;;5103385;28;19924;-65
2021/11/26 14:53:27;;;;;;;;;;;;;;;;;;5101303;28;20015;-64
2021/11/26 14:55:54;;;;;;;;;;;;;;;;;;5100725;28;19931;-63
2021/11/26 14:58:22;;;;;;;;;;;;;;;;;;5099620;28;19971;-67
2021/11/26 15:00:49;;;;;;;;;;;;;;;;;;5101506;28;19953;-67
2021/11/26 15:03:15;;;;;;;;;;;;;;;;;;5095812;28;19996;-69
2021/11/26 15:05:44;;;;;;;;;;;;;;;;;;5102446;28;19928;-69
2021/11/26 15:08:11;;;;;;;;;;;;;;;;;;5104862;27;19924;-65
2021/11/26 15:10:37;;;;;;;;;;;;;;;;;;5098124;28;19939;-67
2021/11/26 15:13:05;;;;;;;;;;;;;;;;;;5101444;28;19940;-65
2021/11/26 15:15:32;;;;;;;;;;;;;;;;;;5096416;28;19966;-65
2021/11/26 15:17:59;;;;;;;;;;;;;;;;;;5099990;28;19988;-66
2021/11/26 15:20:26;;;;;;;;;;;;;;;;;;5103996;28;19927;-68
2021/11/26 15:22:53;;;;;;;;;;;;;;;;;;5099009;28;19980;-65
2021/11/26 15:25:23;;;;;;;;;;;;;;;;;;5101666;28;20448;-64
2021/11/26 15:27:57;;;;;;;;;;;;;;;;;;5094945;28;19931;-67
2021/11/26 15:30:24;;;;;;;;;;;;;;;;;;5093365;28;19931;-66
2021/11/26 15:32:51;;;;;;;;;;;;;;;;;;5092707;28;19974;-65
2021/11/26 15:35:18;;;;;;;;;;;;;;;;;;5100085;28;19935;-67
2021/11/26 15:37:46;;;;;;;;;;;;;;;;;;5100526;28;20031;-61
2021/11/26 15:40:15;;;;;;;;;;;;;;;;;;5022598;28;19953;-67
2021/11/26 15:42:42;;;;;;;;;;;;;;;;;;5070542;27;19924;-61
2021/11/26 15:47:54;;;;;;;;;;;;;;;;;;5093400;28;20311;-66
2021/11/26 15:50:24;;;;;;;;;;;;;;;;;;5097138;28;19947;-64
2021/11/26 15:52:57;;;;;;;;;;;;;;;;;;5098206;28;19912;-63
2021/11/26 15:58:08;;;;;;;;;;;;;;;;;;5087300;27;20322;-65
2021/11/26 16:00:35;;;;;;;;;;;;;;;;;;5090109;28;19927;-65
2021/11/26 16:03:02;;;;;;;;;;;;;;;;;;5094442;28;19980;-66
2021/11/26 16:05:29;;;;;;;;;;;;;;;;;;5084507;28;19925;-66
2021/11/26 16:07:56;;;;;;;;;;;;;;;;;;5091921;28;19924;-66
2021/11/26 16:10:23;;;;;;;;;;;;;;;;;;5089893;28;19964;-67
2021/11/26 16:12:51;;;;;;;;;;;;;;;;;;5088915;28;20015;-66
2021/11/26 16:15:18;;;;;;;;;;;;;;;;;;5091679;28;20320;-67
2021/11/26 16:17:46;;;;;;;;;;;;;;;;;;5086793;28;20071;-67
2021/11/26 16:20:13;;;;;;;;;;;;;;;;;;5092194;28;20382;-67
2021/11/26 16:22:40;;;;;;;;;;;;;;;;;;5088467;28;19924;-66
2021/11/26 16:25:07;;;;;;;;;;;;;;;;;;5088672;28;19924;-66
2021/11/26 16:27:40;;;;;;;;;;;;;;;;;;5085946;28;19980;-66
2021/11/26 16:30:07;;;;;;;;;;;;;;;;;;5092706;28;19985;-66
2021/11/26 16:32:39;;;;;;;;;;;;;;;;;;5091253;28;19938;-65
2021/11/26 16:35:12;;;;;;;;;;;;;;;;;;5088602;28;19928;-66
2021/11/26 16:37:39;;;;;;;;;;;;;;;;;;5088314;28;19924;-67
2021/11/26 16:40:06;;;;;;;;;;;;;;;;;;5086038;28;19928;-64
2021/11/26 16:42:33;;;;;;;;;;;;;;;;;;5083387;28;20019;-65
2021/11/26 16:45:00;;;;;;;;;;;;;;;;;;5088804;28;19924;-67
2021/11/26 16:47:27;;;;;;;;;;;;;;;;;;5088237;28;19981;-64
2021/11/26 16:49:54;;;;;;;;;;;;;;;;;;5088219;28;19997;-66
2021/11/26 16:52:21;;;;;;;;;;;;;;;;;;5087920;28;20000;-67
2021/11/26 16:54:52;;;;;;;;;;;;;;;;;;5089444;28;20010;-67
2021/11/26 16:57:19;;;;;;;;;;;;;;;;;;5087288;28;19924;-66
2021/11/26 16:59:46;;;;;;;;;;;;;;;;;;5080118;28;19939;-64
2021/11/26 17:02:13;;;;;;;;;;;;;;;;;;5089238;28;20023;-66
2021/11/26 17:04:41;;;;;;;;;;;;;;;;;;5089892;28;19991;-67
2021/11/26 17:07:08;;;;;;;;;;;;;;;;;;5092457;28;20323;-64
2021/11/26 17:09:35;;;;;;;;;;;;;;;;;;5085154;28;20380;-68
2021/11/26 17:12:02;;;;;;;;;;;;;;;;;;5092351;28;19967;-64
2021/11/26 17:14:29;;;;;;;;;;;;;;;;;;5091599;28;19924;-65
2021/11/26 17:16:56;;;;;;;;;;;;;;;;;;5087695;28;20012;-66
2021/11/26 17:19:23;;;;;;;;;;;;;;;;;;5088122;28;20034;-68
2021/11/26 17:21:50;;;;;;;;;;;;;;;;;;5087403;28;20376;-67
2021/11/26 17:24:17;;;;;;;;;;;;;;;;;;5083262;28;19924;-67
2021/11/26 17:26:44;;;;;;;;;;;;;;;;;;5088650;28;19968;-67
2021/11/26 17:29:11;;;;;;;;;;;;;;;;;;5093412;28;19978;-67